^^
Your Local Weather - Clay, NY Station Historical Data
Daily Summary for May 4, 2017 Units:  English    Metric   Both
« Previous Day
Next Day »
Daily Weekly Monthly Yearly Custom
  High: Low: Average:
Temperature: 59.5 °F 33.2 °F 46.5 °F
Dew Point: 43.5 °F 26.1 °F 35.6 °F
Humidity: 92% 29% 70%
Wind Speed: 7.0mph 0.0mph 1.8mph
Wind Gust: 12.0mph - -
Wind- - ESE
Pressure: 30.22 in 29.93 in -
Precipitation: 0.08 in    
Historical Graphs
 
 
Tabular Data for May 4, 2017
Time Temperature Dew Point Pressure Wind Wind Speed Wind Gust Humidity Rainfall Rate (Hourly) solar
00:02 38.9 °F 33.6 °F 30.19 in Calm     81% 0.00 in 0 W/m2
00:08 39.0 °F 34.0 °F 30.19 in Calm     82% 0.00 in 0 W/m2
00:14 38.6 °F 33.9 °F 30.20 in Calm     83% 0.00 in 0 W/m2
00:20 38.5 °F 34.1 °F 30.19 in Calm     84% 0.00 in 0 W/m2
00:26 38.6 °F 34.2 °F 30.19 in Calm     84% 0.00 in 0 W/m2
00:32 38.6 °F 34.5 °F 30.18 in Calm     85% 0.00 in 0 W/m2
00:38 38.5 °F 34.4 °F 30.19 in Calm     85% 0.00 in 0 W/m2
00:44 38.1 °F 34.0 °F 30.19 in Calm     85% 0.00 in 0 W/m2
00:50 37.9 °F 33.8 °F 30.19 in Calm     85% 0.00 in 0 W/m2
00:56 37.8 °F 34.0 °F 30.19 in Calm     86% 0.00 in 0 W/m2
01:02 38.0 °F 34.2 °F 30.19 in Calm     86% 0.00 in 0 W/m2
01:08 38.0 °F 34.2 °F 30.19 in Calm     86% 0.00 in 0 W/m2
01:14 38.1 °F 34.6 °F 30.20 in Calm     87% 0.00 in 0 W/m2
01:20 38.1 °F 34.6 °F 30.20 in Calm     87% 0.00 in 0 W/m2
01:26 37.9 °F 34.4 °F 30.20 in Calm     87% 0.00 in 0 W/m2
01:32 37.6 °F 34.4 °F 30.20 in Calm     88% 0.00 in 0 W/m2
01:38 37.4 °F 33.9 °F 30.20 in Calm     87% 0.00 in 0 W/m2
01:44 37.2 °F 34.0 °F 30.20 in Calm     88% 0.00 in 0 W/m2
01:50 37.1 °F 33.9 °F 30.20 in Calm     88% 0.00 in 0 W/m2
01:56 36.9 °F 33.7 °F 30.20 in Calm     88% 0.00 in 0 W/m2
02:02 36.7 °F 33.5 °F 30.20 in Calm     88% 0.00 in 0 W/m2
02:08 36.6 °F 33.4 °F 30.20 in Calm     88% 0.00 in 0 W/m2
02:14 36.5 °F 33.3 °F 30.20 in Calm     88% 0.00 in 0 W/m2
02:20 36.3 °F 33.1 °F 30.20 in Calm     88% 0.00 in 0 W/m2
02:26 36.1 °F 32.9 °F 30.20 in Calm     88% 0.00 in 0 W/m2
02:32 36.0 °F 32.8 °F 30.19 in Calm     88% 0.00 in 0 W/m2
02:38 35.9 °F 33.0 °F 30.19 in Calm     89% 0.00 in 0 W/m2
02:44 35.9 °F 33.0 °F 30.20 in Calm     89% 0.00 in 0 W/m2
02:50 35.8 °F 32.9 °F 30.20 in Calm     89% 0.00 in 0 W/m2
02:56 35.5 °F 32.6 °F 30.18 in Calm     89% 0.00 in 0 W/m2
03:02 35.2 °F 32.3 °F 30.18 in Calm     89% 0.00 in 0 W/m2
03:08 35.1 °F 32.2 °F 30.18 in Calm     89% 0.00 in 0 W/m2
03:14 34.9 °F 32.0 °F 30.18 in Calm     89% 0.00 in 0 W/m2
03:20 34.8 °F 31.9 °F 30.18 in Calm     89% 0.00 in 0 W/m2
03:26 34.6 °F 31.7 °F 30.18 in Calm     89% 0.00 in 0 W/m2
03:32 34.5 °F 31.6 °F 30.19 in Calm     89% 0.00 in 0 W/m2
03:38 34.5 °F 31.9 °F 30.19 in Calm     90% 0.00 in 0 W/m2
03:44 34.4 °F 31.8 °F 30.19 in Calm     90% 0.00 in 0 W/m2
03:50 34.3 °F 31.7 °F 30.18 in Calm     90% 0.00 in 0 W/m2
03:56 34.3 °F 31.7 °F 30.19 in Calm     90% 0.00 in 0 W/m2
04:02 34.3 °F 31.7 °F 30.19 in Calm     90% 0.00 in 0 W/m2
04:08 34.1 °F 31.5 °F 30.19 in Calm     90% 0.00 in 0 W/m2
04:16 34.0 °F 31.4 °F 30.19 in Calm     90% 0.00 in 0 W/m2
04:22 34.0 °F 31.4 °F 30.19 in Calm     90% 0.00 in 0 W/m2
04:28 34.1 °F 31.5 °F 30.18 in Calm     90% 0.00 in 0 W/m2
04:34 34.1 °F 31.7 °F 30.18 in Calm     91% 0.00 in 0 W/m2
04:40 34.0 °F 31.6 °F 30.18 in Calm     91% 0.00 in 0 W/m2
04:46 33.9 °F 31.3 °F 30.19 in Calm     90% 0.00 in 0 W/m2
04:52 33.7 °F 31.4 °F 30.19 in Calm     91% 0.00 in 0 W/m2
04:58 33.7 °F 31.4 °F 30.19 in Calm     91% 0.00 in 0 W/m2
05:04 33.6 °F 31.3 °F 30.19 in Calm     91% 0.00 in 0 W/m2
05:10 33.8 °F 31.5 °F 30.18 in Calm     91% 0.00 in 0 W/m2
05:16 33.9 °F 31.6 °F 30.18 in Calm     91% 0.00 in 0 W/m2
05:22 33.6 °F 31.3 °F 30.19 in Calm     91% 0.00 in 0 W/m2
05:28 33.3 °F 31.0 °F 30.19 in Calm     91% 0.00 in 0 W/m2
05:34 33.3 °F 31.0 °F 30.20 in Calm   1.0 mph 91% 0.00 in 0 W/m2
05:40 33.5 °F 31.2 °F 30.20 in Calm     91% 0.00 in 0 W/m2
05:46 33.4 °F 31.1 °F 30.20 in Calm     91% 0.00 in 0 W/m2
05:52 33.2 °F 30.9 °F 30.20 in Calm     91% 0.00 in 0 W/m2
05:58 33.2 °F 30.9 °F 30.20 in Calm     91% 0.00 in 0 W/m2
06:04 33.2 °F 30.9 °F 30.20 in Calm     91% 0.00 in 7 W/m2
06:10 33.6 °F 31.5 °F 30.20 in Calm     92% 0.00 in 12 W/m2
06:16 33.8 °F 31.7 °F 30.20 in Calm     92% 0.00 in 23 W/m2
06:22 34.1 °F 32.0 °F 30.20 in Calm     92% 0.00 in 35 W/m2
06:28 34.6 °F 32.5 °F 30.20 in Calm     92% 0.00 in 47 W/m2
06:34 35.2 °F 33.1 °F 30.21 in Calm     92% 0.00 in 72 W/m2
06:40 35.8 °F 33.7 °F 30.21 in Calm     92% 0.00 in 44 W/m2
06:46 36.1 °F 34.0 °F 30.21 in Calm   2.0 mph 92% 0.00 in 47 W/m2
06:52 36.5 °F 34.4 °F 30.21 in ENE 1.0 mph 1.0 mph 92% 0.00 in 46 W/m2
06:58 36.8 °F 34.4 °F 30.21 in ENE 1.0 mph 2.0 mph 91% 0.00 in 42 W/m2
07:04 36.9 °F 34.2 °F 30.21 in ENE 1.0 mph 1.0 mph 90% 0.00 in 35 W/m2
07:10 36.8 °F 33.6 °F 30.21 in Calm     88% 0.00 in 40 W/m2
07:16 37.3 °F 34.1 °F 30.21 in Calm     88% 0.00 in 214 W/m2
07:22 38.5 °F 34.7 °F 30.21 in Calm     86% 0.00 in 234 W/m2
07:28 40.1 °F 35.0 °F 30.21 in Calm   3.0 mph 82% 0.00 in 255 W/m2
07:34 40.6 °F 34.3 °F 30.21 in East 1.0 mph 3.0 mph 78% 0.00 in 260 W/m2
07:40 41.1 °F 34.4 °F 30.22 in SSE 1.0 mph 1.0 mph 77% 0.00 in 285 W/m2
07:46 41.7 °F 34.0 °F 30.22 in SSE 2.0 mph 4.0 mph 74% 0.00 in 278 W/m2
07:52 42.3 °F 34.3 °F 30.22 in SSE 3.0 mph 5.0 mph 73% 0.00 in 302 W/m2
07:58 43.0 °F 34.9 °F 30.22 in SSE 2.0 mph 5.0 mph 73% 0.00 in 348 W/m2
08:04 43.9 °F 35.1 °F 30.22 in SE 2.0 mph 2.0 mph 71% 0.00 in 334 W/m2
08:10 44.2 °F 34.3 °F 30.22 in SSE 2.0 mph 2.0 mph 68% 0.00 in 374 W/m2
08:16 44.7 °F 34.4 °F 30.22 in SSE 2.0 mph 3.0 mph 67% 0.00 in 394 W/m2
08:22 45.9 °F 34.8 °F 30.22 in SE 1.0 mph 3.0 mph 65% 0.00 in 431 W/m2
08:28 46.2 °F 34.3 °F 30.22 in SE 2.0 mph 3.0 mph 63% 0.00 in 367 W/m2
08:34 46.7 °F 34.4 °F 30.22 in SE 2.0 mph 3.0 mph 62% 0.00 in 429 W/m2
08:40 47.3 °F 34.1 °F 30.22 in SE 1.0 mph 1.0 mph 60% 0.00 in 260 W/m2
08:48 48.4 °F 35.1 °F 30.21 in East 2.0 mph 2.0 mph 60% 0.00 in 571 W/m2
08:54 49.2 °F 34.2 °F 30.21 in East 2.0 mph 3.0 mph 56% 0.00 in 427 W/m2
09:00 49.0 °F 33.5 °F 30.21 in ENE 2.0 mph 3.0 mph 55% 0.00 in 381 W/m2
09:06 49.0 °F 32.6 °F 30.20 in SE 2.0 mph 5.0 mph 53% 0.00 in 299 W/m2
09:12 49.1 °F 33.2 °F 30.20 in ENE 2.0 mph 2.0 mph 54% 0.00 in 401 W/m2
09:18 49.4 °F 33.0 °F 30.21 in East 2.0 mph 3.0 mph 53% 0.00 in 255 W/m2
09:24 49.9 °F 33.4 °F 30.21 in East 1.0 mph 1.0 mph 53% 0.00 in 304 W/m2
09:30 50.1 °F 34.1 °F 30.20 in East 1.0 mph 1.0 mph 54% 0.00 in 332 W/m2
09:36 50.5 °F 33.5 °F 30.20 in East 2.0 mph 3.0 mph 52% 0.00 in 355 W/m2
09:42 51.0 °F 35.8 °F 30.20 in ENE 1.0 mph 2.0 mph 56% 0.00 in 367 W/m2
09:48 51.4 °F 34.3 °F 30.20 in ENE 2.0 mph 4.0 mph 52% 0.00 in 315 W/m2
09:54 51.8 °F 33.2 °F 30.19 in SE 2.0 mph 2.0 mph 49% 0.00 in 619 W/m2
10:00 52.6 °F 34.0 °F 30.19 in SE 1.0 mph 1.0 mph 49% 0.00 in 598 W/m2
10:06 53.5 °F 33.2 °F 30.18 in NNE 1.0 mph 4.0 mph 46% 0.00 in 689 W/m2
10:12 53.8 °F 33.5 °F 30.18 in SE 2.0 mph 2.0 mph 46% 0.00 in 564 W/m2
10:18 54.1 °F 33.2 °F 30.18 in NE 2.0 mph 2.0 mph 45% 0.00 in 490 W/m2
10:24 54.5 °F 35.7 °F 30.18 in ENE 2.0 mph 4.0 mph 49% 0.00 in 547 W/m2
10:30 54.4 °F 35.6 °F 30.17 in ENE 2.0 mph 3.0 mph 49% 0.00 in 561 W/m2
10:36 55.0 °F 36.2 °F 30.17 in SE 2.0 mph 9.0 mph 49% 0.00 in 775 W/m2
10:42 55.7 °F 37.3 °F 30.17 in NNE 3.0 mph 4.0 mph 50% 0.00 in 603 W/m2
10:48 55.5 °F 37.1 °F 30.17 in SE 3.0 mph 4.0 mph 50% 0.00 in 496 W/m2
10:54 55.9 °F 38.0 °F 30.16 in North 2.0 mph 3.0 mph 51% 0.00 in 513 W/m2
11:00 55.3 °F 35.4 °F 30.16 in SSE 2.0 mph 4.0 mph 47% 0.00 in 336 W/m2
11:06 55.3 °F 38.4 °F 30.16 in East 2.0 mph 6.0 mph 53% 0.00 in 265 W/m2
11:12 55.3 °F 38.0 °F 30.16 in NE 2.0 mph 3.0 mph 52% 0.00 in 229 W/m2
11:18 55.3 °F 38.4 °F 30.16 in NE 2.0 mph 4.0 mph 53% 0.00 in 285 W/m2
11:24 54.9 °F 40.4 °F 30.16 in NNE 3.0 mph 3.0 mph 58% 0.00 in 462 W/m2
11:30 55.4 °F 39.5 °F 30.16 in NNE 3.0 mph 4.0 mph 55% 0.00 in 468 W/m2
11:36 55.2 °F 39.8 °F 30.16 in NE 3.0 mph 6.0 mph 56% 0.00 in 457 W/m2
11:42 55.5 °F 39.6 °F 30.16 in East 3.0 mph 3.0 mph 55% 0.00 in 450 W/m2
11:48 56.1 °F 41.5 °F 30.16 in SE 3.0 mph 6.0 mph 58% 0.00 in 461 W/m2
11:54 56.6 °F 40.6 °F 30.15 in ENE 3.0 mph 3.0 mph 55% 0.00 in 489 W/m2
12:00 55.9 °F 38.0 °F 30.15 in ENE 4.0 mph 4.0 mph 51% 0.00 in 506 W/m2
12:06 56.5 °F 38.6 °F 30.15 in ENE 4.0 mph 4.0 mph 51% 0.00 in 450 W/m2
12:12 56.9 °F 39.4 °F 30.15 in NE 3.0 mph 5.0 mph 52% 0.00 in 366 W/m2
12:18 57.1 °F 38.1 °F 30.14 in ESE 3.0 mph 5.0 mph 49% 0.00 in 348 W/m2
12:24 57.2 °F 35.5 °F 30.14 in SE 2.0 mph 2.0 mph 44% 0.00 in 341 W/m2
12:30 57.8 °F 37.7 °F 30.14 in SE 1.0 mph 1.0 mph 47% 0.00 in 348 W/m2
12:36 58.4 °F 40.3 °F 30.14 in Calm   1.0 mph 51% 0.00 in 346 W/m2
12:42 59.0 °F 29.2 °F 30.13 in SE 1.0 mph 4.0 mph 32% 0.00 in 360 W/m2
12:48 59.2 °F 29.3 °F 30.13 in South 3.0 mph 7.0 mph 32% 0.00 in 350 W/m2
12:54 59.5 °F 28.8 °F 30.13 in SSW 4.0 mph 5.0 mph 31% 0.00 in 334 W/m2
13:00 59.2 °F 30.8 °F 30.12 in South 4.0 mph 4.0 mph 34% 0.00 in 318 W/m2
13:06 59.0 °F 26.8 °F 30.12 in SSW 5.0 mph 8.0 mph 29% 0.00 in 345 W/m2
13:12 59.1 °F 26.8 °F 30.12 in SW 4.0 mph 5.0 mph 29% 0.00 in 339 W/m2
13:18 59.2 °F 28.5 °F 30.12 in SSE 4.0 mph 5.0 mph 31% 0.00 in 302 W/m2
13:24 59.1 °F 27.7 °F 30.12 in SSW 4.0 mph 4.0 mph 30% 0.00 in 315 W/m2
13:30 58.8 °F 27.4 °F 30.12 in SSE 5.0 mph 8.0 mph 30% 0.00 in 322 W/m2
13:36 58.6 °F 28.8 °F 30.12 in South 5.0 mph 8.0 mph 32% 0.00 in 306 W/m2
13:42 58.7 °F 27.3 °F 30.12 in South 5.0 mph 5.0 mph 30% 0.00 in 285 W/m2
13:48 58.6 °F 28.8 °F 30.11 in South 4.0 mph 6.0 mph 32% 0.00 in 258 W/m2
13:54 58.4 °F 27.9 °F 30.11 in South 4.0 mph 7.0 mph 31% 0.00 in 260 W/m2
14:00 58.3 °F 27.8 °F 30.10 in SE 5.0 mph 5.0 mph 31% 0.00 in 241 W/m2
14:06 58.2 °F 29.9 °F 30.10 in SE 5.0 mph 7.0 mph 34% 0.00 in 218 W/m2
14:12 58.0 °F 27.5 °F 30.10 in SSE 4.0 mph 5.0 mph 31% 0.00 in 229 W/m2
14:18 58.1 °F 26.8 °F 30.09 in SSE 3.0 mph 5.0 mph 30% 0.00 in 229 W/m2
14:24 58.1 °F 26.8 °F 30.10 in SSE 4.0 mph 8.0 mph 30% 0.00 in 223 W/m2
14:30 57.9 °F 28.2 °F 30.09 in South 5.0 mph 7.0 mph 32% 0.00 in 174 W/m2
14:36 57.9 °F 29.7 °F 30.10 in South 4.0 mph 8.0 mph 34% 0.00 in 149 W/m2
14:42 57.5 °F 26.3 °F 30.09 in SSE 4.0 mph 4.0 mph 30% 0.00 in 158 W/m2
14:48 57.5 °F 26.3 °F 30.09 in SSW 5.0 mph 7.0 mph 30% 0.00 in 141 W/m2
14:54 57.4 °F 27.0 °F 30.09 in SSW 5.0 mph 7.0 mph 31% 0.00 in 135 W/m2
15:00 57.3 °F 26.1 °F 30.09 in South 4.0 mph 4.0 mph 30% 0.00 in 137 W/m2
15:06 57.3 °F 27.7 °F 30.09 in SSE 4.0 mph 4.0 mph 32% 0.00 in 132 W/m2
15:12 57.2 °F 26.8 °F 30.09 in SSE 5.0 mph 7.0 mph 31% 0.00 in 105 W/m2
15:18 57.1 °F 29.0 °F 30.09 in SE 6.0 mph 9.0 mph 34% 0.00 in 137 W/m2
15:24 57.1 °F 27.5 °F 30.08 in SSE 5.0 mph 7.0 mph 32% 0.00 in 134 W/m2
15:30 57.0 °F 28.1 °F 30.07 in SE 6.0 mph 7.0 mph 33% 0.00 in 100 W/m2
15:36 56.8 °F 28.7 °F 30.07 in SSE 5.0 mph 7.0 mph 34% 0.00 in 90 W/m2
15:42 56.8 °F 28.7 °F 30.07 in SSE 5.0 mph 7.0 mph 34% 0.00 in 93 W/m2
15:48 56.8 °F 29.4 °F 30.07 in SSE 4.0 mph 7.0 mph 35% 0.00 in 77 W/m2
15:54 56.8 °F 30.1 °F 30.07 in SE 4.0 mph 4.0 mph 36% 0.00 in 67 W/m2
16:00 56.4 °F 31.1 °F 30.07 in SSW 3.0 mph 3.0 mph 38% 0.00 in 67 W/m2
16:06 56.2 °F 32.2 °F 30.09 in SE 3.0 mph 4.0 mph 40% 0.00 in 62 W/m2
16:12 56.1 °F 31.5 °F 30.10 in South 5.0 mph 11.0 mph 39% 0.00 in 56 W/m2
16:18 55.4 °F 32.1 °F 30.10 in SSE 7.0 mph 11.0 mph 41% 0.00 in 53 W/m2
16:24 54.6 °F 33.7 °F 30.10 in South 6.0 mph 9.0 mph 45% 0.00 in 54 W/m2
16:30 54.0 °F 34.2 °F 30.10 in SW 7.0 mph 9.0 mph 47% 0.00 in 58 W/m2
16:36 53.5 °F 35.3 °F 30.10 in SSE 6.0 mph 10.0 mph 50% 0.00 in 65 W/m2
16:42 52.3 °F 37.1 °F 30.11 in South 7.0 mph 12.0 mph 56% 0.00 in 65 W/m2
16:48 51.2 °F 38.2 °F 30.12 in SSE 6.0 mph 12.0 mph 61% 0.00 in 44 W/m2
16:54 50.7 °F 38.1 °F 30.12 in SE 5.0 mph 7.0 mph 62% 0.00 in 35 W/m2
17:00 50.6 °F 38.9 °F 30.12 in SE 5.0 mph 5.0 mph 64% 0.00 in 40 W/m2
17:06 50.5 °F 39.2 °F 30.12 in South 4.0 mph 5.0 mph 65% 0.00 in 37 W/m2
17:12 50.2 °F 38.9 °F 30.11 in SSE 4.0 mph 4.0 mph 65% 0.00 in 40 W/m2
17:18 50.0 °F 39.1 °F 30.10 in SE 2.0 mph 4.0 mph 66% 0.00 in 37 W/m2
17:24 49.9 °F 38.6 °F 30.09 in SSE 1.0 mph 2.0 mph 65% 0.00 in 51 W/m2
17:30 49.9 °F 40.1 °F 30.09 in ENE 1.0 mph 3.0 mph 69% 0.00 in 49 W/m2
17:36 49.8 °F 39.7 °F 30.08 in East 2.0 mph 4.0 mph 68% 0.00 in 60 W/m2
17:42 49.7 °F 39.6 °F 30.07 in ESE 3.0 mph 3.0 mph 68% 0.00 in 56 W/m2
17:48 49.6 °F 39.8 °F 30.07 in ENE 3.0 mph 5.0 mph 69% 0.00 in 51 W/m2
17:54 49.5 °F 40.1 °F 30.07 in East 2.0 mph 3.0 mph 70% 0.00 in 62 W/m2
18:00 49.4 °F 40.0 °F 30.07 in East 1.0 mph 2.0 mph 70% 0.00 in 44 W/m2
18:06 49.3 °F 39.9 °F 30.06 in East 2.0 mph 2.0 mph 70% 0.00 in 44 W/m2
18:12 49.2 °F 39.8 °F 30.06 in ENE 2.0 mph 6.0 mph 70% 0.00 in 28 W/m2
18:18 49.2 °F 40.2 °F 30.06 in SE 2.0 mph 6.0 mph 71% 0.00 in 23 W/m2
18:24 49.2 °F 40.2 °F 30.06 in East 1.0 mph 2.0 mph 71% 0.00 in 32 W/m2
18:30 49.2 °F 40.2 °F 30.05 in ENE 2.0 mph 2.0 mph 71% 0.00 in 21 W/m2
18:36 49.2 °F 40.2 °F 30.04 in ENE 2.0 mph 3.0 mph 71% 0.00 in 19 W/m2
18:42 49.2 °F 40.2 °F 30.04 in ENE 2.0 mph 3.0 mph 71% 0.00 in 14 W/m2
18:48 49.1 °F 40.5 °F 30.04 in ENE 2.0 mph 3.0 mph 72% 0.00 in 12 W/m2
18:54 49.0 °F 40.7 °F 30.04 in ENE 2.0 mph 4.0 mph 73% 0.00 in 12 W/m2
19:00 48.8 °F 40.9 °F 30.04 in ENE 1.0 mph 1.0 mph 74% 0.00 in 9 W/m2
19:06 48.5 °F 41.3 °F 30.04 in ENE 1.0 mph 2.0 mph 76% 0.00 in 9 W/m2
19:12 48.0 °F 41.8 °F 30.03 in East 1.0 mph 3.0 mph 79% 0.07 in 11 W/m2
19:18 47.6 °F 42.1 °F 30.02 in NE 2.0 mph 4.0 mph 81% 0.07 in 11 W/m2
19:24 47.4 °F 42.2 °F 30.01 in ENE 2.0 mph 2.0 mph 82% 0.05 in 12 W/m2
19:30 47.3 °F 42.4 °F 30.01 in ENE 2.0 mph 2.0 mph 83% 0.00 in 9 W/m2
19:36 47.3 °F 42.7 °F 30.01 in NE 2.0 mph 3.0 mph 84% 0.00 in 5 W/m2
19:42 47.2 °F 42.9 °F 30.01 in NE 2.0 mph 6.0 mph 85% 0.00 in 7 W/m2
19:48 47.2 °F 42.9 °F 30.01 in ENE 3.0 mph 6.0 mph 85% 0.00 in 5 W/m2
19:54 47.2 °F 42.9 °F 30.01 in ENE 2.0 mph 3.0 mph 85% 0.00 in 0 W/m2
20:00 47.2 °F 42.9 °F 30.01 in NE 2.0 mph 2.0 mph 85% 0.00 in 0 W/m2
20:06 47.2 °F 42.9 °F 30.02 in NE 2.0 mph 2.0 mph 85% 0.00 in 0 W/m2
20:12 47.3 °F 43.0 °F 30.03 in NE 1.0 mph 1.0 mph 85% 0.00 in 0 W/m2
20:18 47.2 °F 43.2 °F 30.03 in Calm   1.0 mph 86% 0.00 in 0 W/m2
20:24 47.2 °F 43.2 °F 30.04 in Calm     86% 0.00 in 0 W/m2
20:30 47.2 °F 43.2 °F 30.03 in Calm   1.0 mph 86% 0.00 in 0 W/m2
20:36 47.1 °F 43.4 °F 30.03 in NE 1.0 mph 1.0 mph 87% 0.00 in 0 W/m2
20:42 47.0 °F 43.3 °F 30.02 in Calm   1.0 mph 87% 0.00 in 0 W/m2
20:48 46.9 °F 43.5 °F 30.02 in Calm   1.0 mph 88% 0.00 in 0 W/m2
20:54 46.9 °F 43.5 °F 30.02 in Calm   1.0 mph 88% 0.07 in 0 W/m2
21:00 46.8 °F 43.4 °F 30.01 in ENE 1.0 mph 1.0 mph 88% 0.07 in 0 W/m2
21:06 46.7 °F 43.3 °F 30.01 in NE 1.0 mph 6.0 mph 88% 0.04 in 0 W/m2
21:12 46.6 °F 43.5 °F 30.00 in ENE 2.0 mph 3.0 mph 89% 0.00 in 0 W/m2
21:18 46.7 °F 43.3 °F 30.00 in East 3.0 mph 4.0 mph 88% 0.00 in 0 W/m2
21:24 46.7 °F 43.3 °F 30.00 in East 2.0 mph 3.0 mph 88% 0.00 in 0 W/m2
21:30 46.7 °F 43.3 °F 30.00 in East 2.0 mph 2.0 mph 88% 0.00 in 0 W/m2
21:36 46.8 °F 43.4 °F 29.99 in ESE 2.0 mph 3.0 mph 88% 0.00 in 0 W/m2
21:42 46.8 °F 43.4 °F 29.99 in ENE 2.0 mph 2.0 mph 88% 0.00 in 0 W/m2
21:48 46.8 °F 43.4 °F 29.99 in ENE 1.0 mph 3.0 mph 88% 0.00 in 0 W/m2
21:54 46.9 °F 43.5 °F 29.99 in ESE 1.0 mph 1.0 mph 88% 0.00 in 0 W/m2
22:00 46.8 °F 43.1 °F 29.99 in East 2.0 mph 3.0 mph 87% 0.00 in 0 W/m2
22:06 46.9 °F 43.2 °F 29.98 in ENE 1.0 mph 3.0 mph 87% 0.00 in 0 W/m2
22:12 46.9 °F 43.2 °F 29.98 in ENE 1.0 mph 3.0 mph 87% 0.00 in 0 W/m2
22:18 46.9 °F 43.2 °F 29.97 in ENE 2.0 mph 3.0 mph 87% 0.00 in 0 W/m2
22:24 46.9 °F 43.2 °F 29.97 in SE 2.0 mph 4.0 mph 87% 0.00 in 0 W/m2
22:30 47.0 °F 43.0 °F 29.96 in ENE 2.0 mph 2.0 mph 86% 0.00 in 0 W/m2
22:36 47.1 °F 43.1 °F 29.96 in East 3.0 mph 3.0 mph 86% 0.00 in 0 W/m2
22:42 47.1 °F 42.8 °F 29.96 in ENE 2.0 mph 7.0 mph 85% 0.00 in 0 W/m2
22:48 47.2 °F 42.6 °F 29.96 in ENE 3.0 mph 7.0 mph 84% 0.00 in 0 W/m2
22:54 47.2 °F 42.6 °F 29.95 in SSE 2.0 mph 3.0 mph 84% 0.00 in 0 W/m2
23:00 47.2 °F 42.6 °F 29.94 in East 3.0 mph 3.0 mph 84% 0.00 in 0 W/m2
23:06 47.2 °F 42.6 °F 29.93 in SE 4.0 mph 5.0 mph 84% 0.00 in 0 W/m2
23:12 47.1 °F 42.5 °F 29.93 in ESE 4.0 mph 4.0 mph 84% 0.00 in 0 W/m2
23:18 47.2 °F 42.3 °F 29.95 in SSE 3.0 mph 4.0 mph 83% 0.00 in 0 W/m2
23:24 47.3 °F 42.4 °F 29.95 in ENE 2.0 mph 2.0 mph 83% 0.00 in 0 W/m2
23:30 47.2 °F 42.3 °F 29.94 in ENE 2.0 mph 2.0 mph 83% 0.00 in 0 W/m2
23:36 47.1 °F 42.2 °F 29.95 in NE 2.0 mph 2.0 mph 83% 0.00 in 0 W/m2
23:42 46.9 °F 42.3 °F 29.94 in East 1.0 mph 2.0 mph 84% 0.00 in 0 W/m2
23:48 46.7 °F 42.1 °F 29.93 in ENE 2.0 mph 4.0 mph 84% 0.00 in 0 W/m2
23:54 46.8 °F 42.2 °F 29.93 in ENE 3.0 mph 3.0 mph 84% 0.00 in 0 W/m2
Country Meadow, Clay, NY, USA
Compliments of Weather Underground - 2 mb